Terminal Aerodrome Forecast
Issued by NWS Nashville, TN

Home | Current Version | Previous Version | Text Only | Print | Product List | Glossary On
Versions: 1 2 3 4 5 6 7 8 9 10 11 12 13 14 15 16 17 18 19 20 21 22 23 24 25 26 27 28
605
FTUS44 KOHX 051733
TAFCSV
TAF
KCSV 051733Z 0518/0618 35009G18KT P6SM VCSH BKN009 BKN014 OVC025
     FM052000 35009G18KT P6SM SCT015 BKN030
     FM060000 33007KT P6SM OVC040
     FM061100 31004KT 2SM BR SKC
     FM061600 35012G17KT P6SM SCT250=

USA.gov is the U.S. government's official web portal to all federal, state and local government web resources and services.